sensor_id;sensor_type;location;lat;lon;timestamp;P1;P2;P0
65803;PMS5003;65658;63.740;34.316;2022-12-18T00:01:35;17;18;
65803;PMS5003;65658;63.740;34.316;2022-12-18T00:05:22;18;21;
65803;PMS5003;65658;63.740;34.316;2022-12-18T00:09:20;8;8;
65803;PMS5003;65658;63.740;34.316;2022-12-18T00:13:21;10;12;
65803;PMS5003;65658;63.740;34.316;2022-12-18T00:17:08;13;14;
65803;PMS5003;65658;63.740;34.316;2022-12-18T00:20:58;12;12;
65803;PMS5003;65658;63.740;34.316;2022-12-18T00:24:58;14;16;
65803;PMS5003;65658;63.740;34.316;2022-12-18T00:28:45;12;13;
65803;PMS5003;65658;63.740;34.316;2022-12-18T00:32:33;13;14;
65803;PMS5003;65658;63.740;34.316;2022-12-18T00:36:20;13;16;
65803;PMS5003;65658;63.740;34.316;2022-12-18T00:40:07;12;13;
65803;PMS5003;65658;63.740;34.316;2022-12-18T00:43:55;17;17;
65803;PMS5003;65658;63.740;34.316;2022-12-18T00:47:42;18;20;
65803;PMS5003;65658;63.740;34.316;2022-12-18T00:51:29;13;14;
65803;PMS5003;65658;63.740;34.316;2022-12-18T00:55:16;13;14;
65803;PMS5003;65658;63.740;34.316;2022-12-18T00:59:03;12;16;
65803;PMS5003;65658;63.740;34.316;2022-12-18T01:02:50;12;12;
65803;PMS5003;65658;63.740;34.316;2022-12-18T01:06:38;10;12;
65803;PMS5003;65658;63.740;34.316;2022-12-18T01:10:26;16;16;
65803;PMS5003;65658;63.740;34.316;2022-12-18T01:14:25;17;17;
65803;PMS5003;65658;63.740;34.316;2022-12-18T01:18:12;10;14;
65803;PMS5003;65658;63.740;34.316;2022-12-18T01:21:59;14;16;
65803;PMS5003;65658;63.740;34.316;2022-12-18T01:25:46;14;18;
65803;PMS5003;65658;63.740;34.316;2022-12-18T01:29:33;13;14;
65803;PMS5003;65658;63.740;34.316;2022-12-18T01:33:21;14;14;
65803;PMS5003;65658;63.740;34.316;2022-12-18T01:37:20;14;16;
65803;PMS5003;65658;63.740;34.316;2022-12-18T01:41:08;16;17;
65803;PMS5003;65658;63.740;34.316;2022-12-18T01:48:45;13;14;
65803;PMS5003;65658;63.740;34.316;2022-12-18T01:52:32;17;20;
65803;PMS5003;65658;63.740;34.316;2022-12-18T01:56:20;21;24;
65803;PMS5003;65658;63.740;34.316;2022-12-18T02:00:10;16;20;
65803;PMS5003;65658;63.740;34.316;2022-12-18T02:04:16;18;20;
65803;PMS5003;65658;63.740;34.316;2022-12-18T02:11:48;14;16;
65803;PMS5003;65658;63.740;34.316;2022-12-18T02:27:19;17;18;
65803;PMS5003;65658;63.740;34.316;2022-12-18T02:31:30;21;22;
65803;PMS5003;65658;63.740;34.316;2022-12-18T02:35:23;16;17;
65803;PMS5003;65658;63.740;34.316;2022-12-18T02:39:12;17;22;
65803;PMS5003;65658;63.740;34.316;2022-12-18T02:43:02;17;18;
65803;PMS5003;65658;63.740;34.316;2022-12-18T02:46:52;17;18;
65803;PMS5003;65658;63.740;34.316;2022-12-18T03:03:19;19;19;
65803;PMS5003;65658;63.740;34.316;2022-12-18T03:07:20;14;14;
65803;PMS5003;65658;63.740;34.316;2022-12-18T03:11:11;20;26;
65803;PMS5003;65658;63.740;34.316;2022-12-18T03:15:24;18;21;
65803;PMS5003;65658;63.740;34.316;2022-12-18T03:19:15;20;21;
65803;PMS5003;65658;63.740;34.316;2022-12-18T03:23:17;18;20;
65803;PMS5003;65658;63.740;34.316;2022-12-18T03:27:40;20;21;
65803;PMS5003;65658;63.740;34.316;2022-12-18T03:31:29;20;23;
65803;PMS5003;65658;63.740;34.316;2022-12-18T03:35:52;20;21;
65803;PMS5003;65658;63.740;34.316;2022-12-18T03:39:52;18;18;
65803;PMS5003;65658;63.740;34.316;2022-12-18T03:48:32;19;26;
65803;PMS5003;65658;63.740;34.316;2022-12-18T03:52:25;20;20;
65803;PMS5003;65658;63.740;34.316;2022-12-18T03:56:28;21;21;
65803;PMS5003;65658;63.740;34.316;2022-12-18T04:00:40;17;17;
65803;PMS5003;65658;63.740;34.316;2022-12-18T04:05:34;27;30;
65803;PMS5003;65658;63.740;34.316;2022-12-18T04:09:26;21;21;
65803;PMS5003;65658;63.740;34.316;2022-12-18T04:13:28;19;20;
65803;PMS5003;65658;63.740;34.316;2022-12-18T04:17:39;17;19;
65803;PMS5003;65658;63.740;34.316;2022-12-18T04:21:30;18;20;
65803;PMS5003;65658;63.740;34.316;2022-12-18T04:25:28;15;16;
65803;PMS5003;65658;63.740;34.316;2022-12-18T04:29:27;19;20;
65803;PMS5003;65658;63.740;34.316;2022-12-18T04:33:37;15;19;
65803;PMS5003;65658;63.740;34.316;2022-12-18T04:37:26;16;22;
65803;PMS5003;65658;63.740;34.316;2022-12-18T04:41:15;22;23;
65803;PMS5003;65658;63.740;34.316;2022-12-18T04:45:16;19;21;
65803;PMS5003;65658;63.740;34.316;2022-12-18T04:49:26;17;20;
65803;PMS5003;65658;63.740;34.316;2022-12-18T04:53:15;16;19;
65803;PMS5003;65658;63.740;34.316;2022-12-18T04:57:15;13;15;
65803;PMS5003;65658;63.740;34.316;2022-12-18T05:01:48;15;15;
65803;PMS5003;65658;63.740;34.316;2022-12-18T05:06:09;19;22;
65803;PMS5003;65658;63.740;34.316;2022-12-18T05:10:30;16;19;
65803;PMS5003;65658;63.740;34.316;2022-12-18T05:14:41;16;20;
65803;PMS5003;65658;63.740;34.316;2022-12-18T05:19:25;12;15;
65803;PMS5003;65658;63.740;34.316;2022-12-18T05:23:25;17;17;
65803;PMS5003;65658;63.740;34.316;2022-12-18T05:27:25;13;13;
65803;PMS5003;65658;63.740;34.316;2022-12-18T05:32:00;11;12;
65803;PMS5003;65658;63.740;34.316;2022-12-18T05:36:02;16;16;
65803;PMS5003;65658;63.740;34.316;2022-12-18T05:40:14;16;16;
65803;PMS5003;65658;63.740;34.316;2022-12-18T05:44:15;13;13;
65803;PMS5003;65658;63.740;34.316;2022-12-18T05:48:14;13;15;
65803;PMS5003;65658;63.740;34.316;2022-12-18T05:52:13;19;22;
65803;PMS5003;65658;63.740;34.316;2022-12-18T05:56:13;17;17;
65803;PMS5003;65658;63.740;34.316;2022-12-18T06:00:12;12;12;
65803;PMS5003;65658;63.740;34.316;2022-12-18T06:04:23;20;22;
65803;PMS5003;65658;63.740;34.316;2022-12-18T06:08:23;17;19;
65803;PMS5003;65658;63.740;34.316;2022-12-18T06:12:44;17;19;
65803;PMS5003;65658;63.740;34.316;2022-12-18T06:16:55;16;20;
65803;PMS5003;65658;63.740;34.316;2022-12-18T06:21:51;7;7;
65803;PMS5003;65658;63.740;34.316;2022-12-18T06:25:51;15;17;
65803;PMS5003;65658;63.740;34.316;2022-12-18T06:30:13;16;16;
65803;PMS5003;65658;63.740;34.316;2022-12-18T06:34:25;16;19;
65803;PMS5003;65658;63.740;34.316;2022-12-18T06:38:46;15;18;
65803;PMS5003;65658;63.740;34.316;2022-12-18T06:42:36;15;16;
65803;PMS5003;65658;63.740;34.316;2022-12-18T06:47:08;12;13;
65803;PMS5003;65658;63.740;34.316;2022-12-18T06:51:19;17;20;
65803;PMS5003;65658;63.740;34.316;2022-12-18T06:55:30;16;20;
65803;PMS5003;65658;63.740;34.316;2022-12-18T06:59:18;16;17;
65803;PMS5003;65658;63.740;34.316;2022-12-18T07:03:07;16;18;
65803;PMS5003;65658;63.740;34.316;2022-12-18T07:07:07;14;14;
65803;PMS5003;65658;63.740;34.316;2022-12-18T07:11:19;9;9;
65803;PMS5003;65658;63.740;34.316;2022-12-18T07:15:52;16;18;
65803;PMS5003;65658;63.740;34.316;2022-12-18T07:19:54;13;15;
65803;PMS5003;65658;63.740;34.316;2022-12-18T07:24:15;13;17;
65803;PMS5003;65658;63.740;34.316;2022-12-18T07:28:16;9;10;
65803;PMS5003;65658;63.740;34.316;2022-12-18T07:32:25;20;22;
65803;PMS5003;65658;63.740;34.316;2022-12-18T07:36:14;16;18;
65803;PMS5003;65658;63.740;34.316;2022-12-18T07:40:13;13;13;
65803;PMS5003;65658;63.740;34.316;2022-12-18T07:44:02;12;13;
65803;PMS5003;65658;63.740;34.316;2022-12-18T07:48:04;16;17;
65803;PMS5003;65658;63.740;34.316;2022-12-18T07:51:53;13;16;
65803;PMS5003;65658;63.740;34.316;2022-12-18T07:56:05;13;13;
65803;PMS5003;65658;63.740;34.316;2022-12-18T08:00:14;10;12;
65803;PMS5003;65658;63.740;34.316;2022-12-18T08:04:38;19;19;
65803;PMS5003;65658;63.740;34.316;2022-12-18T08:08:37;17;20;
65803;PMS5003;65658;63.740;34.316;2022-12-18T08:12:37;21;24;
65803;PMS5003;65658;63.740;34.316;2022-12-18T08:16:25;15;15;
65803;PMS5003;65658;63.740;34.316;2022-12-18T08:20:13;13;13;
65803;PMS5003;65658;63.740;34.316;2022-12-18T08:24:14;13;14;
65803;PMS5003;65658;63.740;34.316;2022-12-18T08:28:02;14;17;
65803;PMS5003;65658;63.740;34.316;2022-12-18T08:32:01;13;13;
65803;PMS5003;65658;63.740;34.316;2022-12-18T08:35:49;13;16;
65803;PMS5003;65658;63.740;34.316;2022-12-18T08:39:36;14;17;
65803;PMS5003;65658;63.740;34.316;2022-12-18T08:43:59;16;16;
65803;PMS5003;65658;63.740;34.316;2022-12-18T08:47:47;14;16;
65803;PMS5003;65658;63.740;34.316;2022-12-18T08:52:00;15;17;
65803;PMS5003;65658;63.740;34.316;2022-12-18T08:55:47;17;18;
65803;PMS5003;65658;63.740;34.316;2022-12-18T08:59:35;14;17;
65803;PMS5003;65658;63.740;34.316;2022-12-18T09:03:23;14;15;
65803;PMS5003;65658;63.740;34.316;2022-12-18T09:07:10;14;15;
65803;PMS5003;65658;63.740;34.316;2022-12-18T09:11:18;13;14;
65803;PMS5003;65658;63.740;34.316;2022-12-18T09:15:15;12;13;
65803;PMS5003;65658;63.740;34.316;2022-12-18T09:19:15;14;14;
65803;PMS5003;65658;63.740;34.316;2022-12-18T09:23:14;9;9;
65803;PMS5003;65658;63.740;34.316;2022-12-18T09:27:12;8;9;
65803;PMS5003;65658;63.740;34.316;2022-12-18T09:31:05;13;13;
65803;PMS5003;65658;63.740;34.316;2022-12-18T09:34:53;14;16;
65803;PMS5003;65658;63.740;34.316;2022-12-18T09:38:53;17;18;
65803;PMS5003;65658;63.740;34.316;2022-12-18T09:42:40;11;14;
65803;PMS5003;65658;63.740;34.316;2022-12-18T09:46:38;16;17;
65803;PMS5003;65658;63.740;34.316;2022-12-18T09:50:23;12;13;
65803;PMS5003;65658;63.740;34.316;2022-12-18T09:54:12;16;16;
65803;PMS5003;65658;63.740;34.316;2022-12-18T09:58:04;12;13;
65803;PMS5003;65658;63.740;34.316;2022-12-18T10:01:52;13;14;
65803;PMS5003;65658;63.740;34.316;2022-12-18T10:09:28;12;13;
65803;PMS5003;65658;63.740;34.316;2022-12-18T10:21:15;10;10;
65803;PMS5003;65658;63.740;34.316;2022-12-18T10:28:53;12;13;
65803;PMS5003;65658;63.740;34.316;2022-12-18T10:32:49;17;18;
65803;PMS5003;65658;63.740;34.316;2022-12-18T10:36:37;12;13;
65803;PMS5003;65658;63.740;34.316;2022-12-18T10:40:24;14;14;
65803;PMS5003;65658;63.740;34.316;2022-12-18T10:44:16;12;12;
65803;PMS5003;65658;63.740;34.316;2022-12-18T10:48:02;12;13;
65803;PMS5003;65658;63.740;34.316;2022-12-18T10:51:50;12;13;
65803;PMS5003;65658;63.740;34.316;2022-12-18T10:55:38;12;14;
65803;PMS5003;65658;63.740;34.316;2022-12-18T10:59:50;13;13;
65803;PMS5003;65658;63.740;34.316;2022-12-18T11:03:31;13;13;
65803;PMS5003;65658;63.740;34.316;2022-12-18T11:11:34;13;16;
65803;PMS5003;65658;63.740;34.316;2022-12-18T11:15:26;13;13;
65803;PMS5003;65658;63.740;34.316;2022-12-18T11:23:05;12;13;
65803;PMS5003;65658;63.740;34.316;2022-12-18T11:26:54;12;12;
65803;PMS5003;65658;63.740;34.316;2022-12-18T11:30:41;10;12;
65803;PMS5003;65658;63.740;34.316;2022-12-18T11:34:28;13;13;
65803;PMS5003;65658;63.740;34.316;2022-12-18T11:46:23;13;15;
65803;PMS5003;65658;63.740;34.316;2022-12-18T11:49:50;14;14;
65803;PMS5003;65658;63.740;34.316;2022-12-18T11:53:51;14;15;
65803;PMS5003;65658;63.740;34.316;2022-12-18T11:57:41;13;13;
65803;PMS5003;65658;63.740;34.316;2022-12-18T12:21:27;11;13;
65803;PMS5003;65658;63.740;34.316;2022-12-18T12:29:09;13;17;
65803;PMS5003;65658;63.740;34.316;2022-12-18T12:40:45;13;13;
65803;PMS5003;65658;63.740;34.316;2022-12-18T12:44:39;13;14;
65803;PMS5003;65658;63.740;34.316;2022-12-18T12:56:17;15;18;
65803;PMS5003;65658;63.740;34.316;2022-12-18T13:04:18;12;13;
65803;PMS5003;65658;63.740;34.316;2022-12-18T13:08:10;12;14;
65803;PMS5003;65658;63.740;34.316;2022-12-18T13:12:02;12;12;
65803;PMS5003;65658;63.740;34.316;2022-12-18T13:19:41;13;14;
65803;PMS5003;65658;63.740;34.316;2022-12-18T13:23:34;10;10;
65803;PMS5003;65658;63.740;34.316;2022-12-18T13:31:14;14;18;
65803;PMS5003;65658;63.740;34.316;2022-12-18T13:42:44;14;17;
65803;PMS5003;65658;63.740;34.316;2022-12-18T13:50:25;14;15;
65803;PMS5003;65658;63.740;34.316;2022-12-18T13:58:05;15;17;
65803;PMS5003;65658;63.740;34.316;2022-12-18T14:01:53;13;13;
65803;PMS5003;65658;63.740;34.316;2022-12-18T14:05:43;14;14;
65803;PMS5003;65658;63.740;34.316;2022-12-18T14:09:34;10;11;
65803;PMS5003;65658;63.740;34.316;2022-12-18T14:17:12;14;15;
65803;PMS5003;65658;63.740;34.316;2022-12-18T14:21:02;11;13;
65803;PMS5003;65658;63.740;34.316;2022-12-18T14:25:04;11;11;
65803;PMS5003;65658;63.740;34.316;2022-12-18T14:28:43;12;12;
65803;PMS5003;65658;63.740;34.316;2022-12-18T14:32:40;11;11;
65803;PMS5003;65658;63.740;34.316;2022-12-18T14:36:28;10;11;
65803;PMS5003;65658;63.740;34.316;2022-12-18T14:40:24;13;13;
65803;PMS5003;65658;63.740;34.316;2022-12-18T14:44:12;11;13;
65803;PMS5003;65658;63.740;34.316;2022-12-18T14:47:59;11;13;
65803;PMS5003;65658;63.740;34.316;2022-12-18T14:51:48;13;14;
65803;PMS5003;65658;63.740;34.316;2022-12-18T14:55:36;10;10;
65803;PMS5003;65658;63.740;34.316;2022-12-18T14:59:24;12;12;
65803;PMS5003;65658;63.740;34.316;2022-12-18T15:03:12;14;18;
65803;PMS5003;65658;63.740;34.316;2022-12-18T15:07:15;10;12;
65803;PMS5003;65658;63.740;34.316;2022-12-18T15:11:02;13;17;
65803;PMS5003;65658;63.740;34.316;2022-12-18T15:14:49;13;16;
65803;PMS5003;65658;63.740;34.316;2022-12-18T15:18:38;12;13;
65803;PMS5003;65658;63.740;34.316;2022-12-18T15:22:39;14;14;
65803;PMS5003;65658;63.740;34.316;2022-12-18T15:26:27;11;13;
65803;PMS5003;65658;63.740;34.316;2022-12-18T15:30:20;10;10;
65803;PMS5003;65658;63.740;34.316;2022-12-18T15:37:55;14;17;
65803;PMS5003;65658;63.740;34.316;2022-12-18T15:41:54;13;18;
65803;PMS5003;65658;63.740;34.316;2022-12-18T15:45:54;10;13;
65803;PMS5003;65658;63.740;34.316;2022-12-18T15:49:42;16;20;
65803;PMS5003;65658;63.740;34.316;2022-12-18T15:53:32;13;14;
65803;PMS5003;65658;63.740;34.316;2022-12-18T15:57:30;11;13;
65803;PMS5003;65658;63.740;34.316;2022-12-18T16:01:17;13;13;
65803;PMS5003;65658;63.740;34.316;2022-12-18T16:05:05;18;18;
65803;PMS5003;65658;63.740;34.316;2022-12-18T16:08:55;9;13;
65803;PMS5003;65658;63.740;34.316;2022-12-18T16:12:42;10;11;
65803;PMS5003;65658;63.740;34.316;2022-12-18T16:16:40;10;10;
65803;PMS5003;65658;63.740;34.316;2022-12-18T16:20:28;11;14;
65803;PMS5003;65658;63.740;34.316;2022-12-18T16:24:20;13;13;
65803;PMS5003;65658;63.740;34.316;2022-12-18T16:28:17;13;16;
65803;PMS5003;65658;63.740;34.316;2022-12-18T16:32:08;17;17;
65803;PMS5003;65658;63.740;34.316;2022-12-18T16:35:55;13;14;
65803;PMS5003;65658;63.740;34.316;2022-12-18T16:39:45;12;13;
65803;PMS5003;65658;63.740;34.316;2022-12-18T16:43:32;12;12;
65803;PMS5003;65658;63.740;34.316;2022-12-18T16:47:32;13;13;
65803;PMS5003;65658;63.740;34.316;2022-12-18T16:51:21;15;17;
65803;PMS5003;65658;63.740;34.316;2022-12-18T16:55:09;18;18;
65803;PMS5003;65658;63.740;34.316;2022-12-18T16:58:57;11;14;
65803;PMS5003;65658;63.740;34.316;2022-12-18T17:02:44;15;17;
65803;PMS5003;65658;63.740;34.316;2022-12-18T17:06:44;12;12;
65803;PMS5003;65658;63.740;34.316;2022-12-18T17:10:42;14;18;
65803;PMS5003;65658;63.740;34.316;2022-12-18T17:14:30;13;17;
65803;PMS5003;65658;63.740;34.316;2022-12-18T17:18:31;12;14;
65803;PMS5003;65658;63.740;34.316;2022-12-18T17:22:30;14;17;
65803;PMS5003;65658;63.740;34.316;2022-12-18T17:26:51;10;12;
65803;PMS5003;65658;63.740;34.316;2022-12-18T17:31:16;17;17;
65803;PMS5003;65658;63.740;34.316;2022-12-18T17:35:26;18;20;
65803;PMS5003;65658;63.740;34.316;2022-12-18T17:39:26;14;16;
65803;PMS5003;65658;63.740;34.316;2022-12-18T17:43:27;14;16;
65803;PMS5003;65658;63.740;34.316;2022-12-18T17:47:49;12;13;
65803;PMS5003;65658;63.740;34.316;2022-12-18T17:51:47;16;17;
65803;PMS5003;65658;63.740;34.316;2022-12-18T17:59:38;12;13;
65803;PMS5003;65658;63.740;34.316;2022-12-18T18:03:38;12;13;
65803;PMS5003;65658;63.740;34.316;2022-12-18T18:07:37;8;8;
65803;PMS5003;65658;63.740;34.316;2022-12-18T18:11:36;10;10;
65803;PMS5003;65658;63.740;34.316;2022-12-18T18:15:53;13;16;
65803;PMS5003;65658;63.740;34.316;2022-12-18T18:19:51;14;16;
65803;PMS5003;65658;63.740;34.316;2022-12-18T18:23:39;14;14;
65803;PMS5003;65658;63.740;34.316;2022-12-18T18:27:29;14;17;
65803;PMS5003;65658;63.740;34.316;2022-12-18T18:31:29;20;21;
65803;PMS5003;65658;63.740;34.316;2022-12-18T18:35:18;15;16;
65803;PMS5003;65658;63.740;34.316;2022-12-18T18:39:18;14;16;
65803;PMS5003;65658;63.740;34.316;2022-12-18T18:43:17;13;13;
65803;PMS5003;65658;63.740;34.316;2022-12-18T18:47:06;16;17;
65803;PMS5003;65658;63.740;34.316;2022-12-18T18:50:54;13;19;
65803;PMS5003;65658;63.740;34.316;2022-12-18T18:54:42;15;15;
65803;PMS5003;65658;63.740;34.316;2022-12-18T18:59:03;12;13;
65803;PMS5003;65658;63.740;34.316;2022-12-18T19:03:04;16;16;
65803;PMS5003;65658;63.740;34.316;2022-12-18T19:07:27;109;126;
65803;PMS5003;65658;63.740;34.316;2022-12-18T19:11:52;24;26;
65803;PMS5003;65658;63.740;34.316;2022-12-18T19:15:41;17;17;
65803;PMS5003;65658;63.740;34.316;2022-12-18T19:19:51;14;14;
65803;PMS5003;65658;63.740;34.316;2022-12-18T19:24:04;12;13;
65803;PMS5003;65658;63.740;34.316;2022-12-18T19:28:04;46;59;
65803;PMS5003;65658;63.740;34.316;2022-12-18T19:32:18;19;21;
65803;PMS5003;65658;63.740;34.316;2022-12-18T19:36:41;17;17;
65803;PMS5003;65658;63.740;34.316;2022-12-18T19:40:54;34;39;
65803;PMS5003;65658;63.740;34.316;2022-12-18T19:44:48;63;78;
65803;PMS5003;65658;63.740;34.316;2022-12-18T19:48:50;17;17;
65803;PMS5003;65658;63.740;34.316;2022-12-18T19:53:00;15;16;
65803;PMS5003;65658;63.740;34.316;2022-12-18T19:57:11;13;13;
65803;PMS5003;65658;63.740;34.316;2022-12-18T20:01:46;16;19;
65803;PMS5003;65658;63.740;34.316;2022-12-18T20:10:01;16;17;
65803;PMS5003;65658;63.740;34.316;2022-12-18T20:14:44;17;19;
65803;PMS5003;65658;63.740;34.316;2022-12-18T20:18:48;53;64;
65803;PMS5003;65658;63.740;34.316;2022-12-18T20:22:49;39;45;
65803;PMS5003;65658;63.740;34.316;2022-12-18T20:26:43;52;64;
65803;PMS5003;65658;63.740;34.316;2022-12-18T20:31:19;17;19;
65803;PMS5003;65658;63.740;34.316;2022-12-18T20:35:53;13;16;
65803;PMS5003;65658;63.740;34.316;2022-12-18T20:39:55;61;84;
65803;PMS5003;65658;63.740;34.316;2022-12-18T20:43:44;52;66;
65803;PMS5003;65658;63.740;34.316;2022-12-18T20:48:07;56;72;
65803;PMS5003;65658;63.740;34.316;2022-12-18T20:52:00;68;90;
65803;PMS5003;65658;63.740;34.316;2022-12-18T20:55:52;53;64;
65803;PMS5003;65658;63.740;34.316;2022-12-18T20:59:48;67;91;
65803;PMS5003;65658;63.740;34.316;2022-12-18T21:03:42;108;130;
65803;PMS5003;65658;63.740;34.316;2022-12-18T21:07:47;201;245;
65803;PMS5003;65658;63.740;34.316;2022-12-18T21:12:12;340;432;
65803;PMS5003;65658;63.740;34.316;2022-12-18T21:16:16;277;350;
65803;PMS5003;65658;63.740;34.316;2022-12-18T21:20:43;346;446;
65803;PMS5003;65658;63.740;34.316;2022-12-18T21:24:37;135;170;
65803;PMS5003;65658;63.740;34.316;2022-12-18T21:28:42;241;288;
65803;PMS5003;65658;63.740;34.316;2022-12-18T21:32:45;183;216;
65803;PMS5003;65658;63.740;34.316;2022-12-18T21:36:40;258;342;
65803;PMS5003;65658;63.740;34.316;2022-12-18T21:40:53;151;193;
65803;PMS5003;65658;63.740;34.316;2022-12-18T21:44:55;168;219;
65803;PMS5003;65658;63.740;34.316;2022-12-18T21:48:48;127;158;
65803;PMS5003;65658;63.740;34.316;2022-12-18T21:52:42;268;353;
65803;PMS5003;65658;63.740;34.316;2022-12-18T22:01:27;249;314;
65803;PMS5003;65658;63.740;34.316;2022-12-18T22:05:31;245;342;
65803;PMS5003;65658;63.740;34.316;2022-12-18T22:09:24;248;316;
65803;PMS5003;65658;63.740;34.316;2022-12-18T22:13:16;129;164;
65803;PMS5003;65658;63.740;34.316;2022-12-18T22:17:10;223;278;
65803;PMS5003;65658;63.740;34.316;2022-12-18T22:21:03;296;403;
65803;PMS5003;65658;63.740;34.316;2022-12-18T22:25:06;156;205;
65803;PMS5003;65658;63.740;34.316;2022-12-18T22:29:00;246;335;
65803;PMS5003;65658;63.740;34.316;2022-12-18T22:33:16;174;223;
65803;PMS5003;65658;63.740;34.316;2022-12-18T22:37:10;146;167;
65803;PMS5003;65658;63.740;34.316;2022-12-18T22:41:24;356;465;
65803;PMS5003;65658;63.740;34.316;2022-12-18T22:45:38;288;367;
65803;PMS5003;65658;63.740;34.316;2022-12-18T22:49:41;294;373;
65803;PMS5003;65658;63.740;34.316;2022-12-18T22:54:06;93;124;
65803;PMS5003;65658;63.740;34.316;2022-12-18T22:58:31;133;168;
65803;PMS5003;65658;63.740;34.316;2022-12-18T23:02:23;248;323;
65803;PMS5003;65658;63.740;34.316;2022-12-18T23:06:18;149;197;
65803;PMS5003;65658;63.740;34.316;2022-12-18T23:10:11;235;312;
65803;PMS5003;65658;63.740;34.316;2022-12-18T23:14:46;149;195;
65803;PMS5003;65658;63.740;34.316;2022-12-18T23:19:11;330;445;
65803;PMS5003;65658;63.740;34.316;2022-12-18T23:23:16;212;286;
65803;PMS5003;65658;63.740;34.316;2022-12-18T23:27:31;103;130;
65803;PMS5003;65658;63.740;34.316;2022-12-18T23:31:27;41;52;
65803;PMS5003;65658;63.740;34.316;2022-12-18T23:35:32;81;102;
65803;PMS5003;65658;63.740;34.316;2022-12-18T23:39:36;127;161;
65803;PMS5003;65658;63.740;34.316;2022-12-18T23:43:29;52;67;
65803;PMS5003;65658;63.740;34.316;2022-12-18T23:47:24;117;141;
65803;PMS5003;65658;63.740;34.316;2022-12-18T23:51:28;235;303;
65803;PMS5003;65658;63.740;34.316;2022-12-18T23:55:21;50;60;
65803;PMS5003;65658;63.740;34.316;2022-12-18T23:59:16;72;96;
